sensor_id;sensor_type;location;lat;lon;timestamp;P1;durP1;ratioP1;P2;durP2;ratioP2
76405;SDS011;65234;50.044;19.258;2022-11-15T00:00:06;35.47;;;30.25;;
76405;SDS011;65234;50.044;19.258;2022-11-15T00:02:53;34.60;;;29.40;;
76405;SDS011;65234;50.044;19.258;2022-11-15T00:05:18;41.35;;;31.38;;
76405;SDS011;65234;50.044;19.258;2022-11-15T00:07:45;37.28;;;30.73;;
76405;SDS011;65234;50.044;19.258;2022-11-15T00:10:10;31.38;;;28.35;;
76405;SDS011;65234;50.044;19.258;2022-11-15T00:12:36;36.50;;;30.23;;
76405;SDS011;65234;50.044;19.258;2022-11-15T00:15:02;36.58;;;30.98;;
76405;SDS011;65234;50.044;19.258;2022-11-15T00:17:30;36.55;;;31.45;;
76405;SDS011;65234;50.044;19.258;2022-11-15T00:19:55;32.47;;;29.00;;
76405;SDS011;65234;50.044;19.258;2022-11-15T00:22:21;35.67;;;29.90;;
76405;SDS011;65234;50.044;19.258;2022-11-15T00:24:47;33.17;;;28.70;;
76405;SDS011;65234;50.044;19.258;2022-11-15T00:27:13;34.08;;;30.45;;
76405;SDS011;65234;50.044;19.258;2022-11-15T00:29:38;38.53;;;30.60;;
76405;SDS011;65234;50.044;19.258;2022-11-15T00:32:04;41.30;;;31.13;;
76405;SDS011;65234;50.044;19.258;2022-11-15T00:34:31;32.75;;;29.58;;
76405;SDS011;65234;50.044;19.258;2022-11-15T00:36:57;34.67;;;30.05;;
76405;SDS011;65234;50.044;19.258;2022-11-15T00:39:22;36.95;;;31.70;;
76405;SDS011;65234;50.044;19.258;2022-11-15T00:41:49;34.90;;;29.67;;
76405;SDS011;65234;50.044;19.258;2022-11-15T00:44:14;36.67;;;32.13;;
76405;SDS011;65234;50.044;19.258;2022-11-15T00:46:40;41.75;;;29.98;;
76405;SDS011;65234;50.044;19.258;2022-11-15T00:49:06;36.63;;;31.02;;
76405;SDS011;65234;50.044;19.258;2022-11-15T00:51:33;32.03;;;28.95;;
76405;SDS011;65234;50.044;19.258;2022-11-15T00:53:58;35.65;;;32.03;;
76405;SDS011;65234;50.044;19.258;2022-11-15T00:56:24;42.08;;;34.80;;
76405;SDS011;65234;50.044;19.258;2022-11-15T00:58:50;36.45;;;31.33;;
76405;SDS011;65234;50.044;19.258;2022-11-15T01:01:16;40.80;;;31.20;;
76405;SDS011;65234;50.044;19.258;2022-11-15T01:03:41;40.25;;;32.28;;
76405;SDS011;65234;50.044;19.258;2022-11-15T01:06:08;34.42;;;30.95;;
76405;SDS011;65234;50.044;19.258;2022-11-15T01:08:35;39.70;;;33.70;;
76405;SDS011;65234;50.044;19.258;2022-11-15T01:11:01;37.55;;;32.50;;
76405;SDS011;65234;50.044;19.258;2022-11-15T01:13:29;34.78;;;30.75;;
76405;SDS011;65234;50.044;19.258;2022-11-15T01:15:56;31.55;;;28.63;;
76405;SDS011;65234;50.044;19.258;2022-11-15T01:18:21;32.60;;;29.65;;
76405;SDS011;65234;50.044;19.258;2022-11-15T01:20:47;34.45;;;30.55;;
76405;SDS011;65234;50.044;19.258;2022-11-15T01:23:13;33.13;;;29.55;;
76405;SDS011;65234;50.044;19.258;2022-11-15T01:25:40;37.72;;;33.75;;
76405;SDS011;65234;50.044;19.258;2022-11-15T01:28:05;35.70;;;31.08;;
76405;SDS011;65234;50.044;19.258;2022-11-15T01:30:31;41.00;;;32.47;;
76405;SDS011;65234;50.044;19.258;2022-11-15T01:32:57;38.75;;;32.00;;
76405;SDS011;65234;50.044;19.258;2022-11-15T01:35:23;35.53;;;31.77;;
76405;SDS011;65234;50.044;19.258;2022-11-15T01:37:48;38.22;;;32.95;;
76405;SDS011;65234;50.044;19.258;2022-11-15T01:40:14;34.83;;;30.15;;
76405;SDS011;65234;50.044;19.258;2022-11-15T01:42:41;43.92;;;31.10;;
76405;SDS011;65234;50.044;19.258;2022-11-15T01:45:08;34.20;;;30.75;;
76405;SDS011;65234;50.044;19.258;2022-11-15T01:47:39;33.45;;;30.00;;
76405;SDS011;65234;50.044;19.258;2022-11-15T01:50:09;37.15;;;32.08;;
76405;SDS011;65234;50.044;19.258;2022-11-15T01:52:38;38.03;;;31.17;;
76405;SDS011;65234;50.044;19.258;2022-11-15T01:55:06;31.13;;;28.02;;
76405;SDS011;65234;50.044;19.258;2022-11-15T01:57:36;32.03;;;28.85;;
76405;SDS011;65234;50.044;19.258;2022-11-15T02:00:04;33.85;;;30.30;;
76405;SDS011;65234;50.044;19.258;2022-11-15T02:02:31;37.85;;;31.73;;
76405;SDS011;65234;50.044;19.258;2022-11-15T02:04:57;41.53;;;30.50;;
76405;SDS011;65234;50.044;19.258;2022-11-15T02:07:23;32.03;;;28.60;;
76405;SDS011;65234;50.044;19.258;2022-11-15T02:09:49;32.78;;;29.33;;
76405;SDS011;65234;50.044;19.258;2022-11-15T02:12:17;33.35;;;29.55;;
76405;SDS011;65234;50.044;19.258;2022-11-15T02:14:46;34.65;;;29.70;;
76405;SDS011;65234;50.044;19.258;2022-11-15T02:17:21;31.80;;;28.50;;
76405;SDS011;65234;50.044;19.258;2022-11-15T02:20:03;30.30;;;26.85;;
76405;SDS011;65234;50.044;19.258;2022-11-15T02:22:46;34.28;;;29.00;;
76405;SDS011;65234;50.044;19.258;2022-11-15T02:25:34;41.05;;;31.17;;
76405;SDS011;65234;50.044;19.258;2022-11-15T02:28:20;34.70;;;30.13;;
76405;SDS011;65234;50.044;19.258;2022-11-15T02:30:57;33.92;;;29.60;;
76405;SDS011;65234;50.044;19.258;2022-11-15T02:36:00;27.92;;;25.05;;
76405;SDS011;65234;50.044;19.258;2022-11-15T02:38:29;29.38;;;26.75;;
76405;SDS011;65234;50.044;19.258;2022-11-15T02:41:01;28.48;;;24.95;;
76405;SDS011;65234;50.044;19.258;2022-11-15T02:43:31;29.52;;;26.52;;
76405;SDS011;65234;50.044;19.258;2022-11-15T02:46:05;29.67;;;26.60;;
76405;SDS011;65234;50.044;19.258;2022-11-15T02:48:35;32.40;;;27.15;;
76405;SDS011;65234;50.044;19.258;2022-11-15T02:51:02;30.00;;;27.05;;
76405;SDS011;65234;50.044;19.258;2022-11-15T02:53:28;34.63;;;26.77;;
76405;SDS011;65234;50.044;19.258;2022-11-15T02:55:54;28.60;;;25.58;;
76405;SDS011;65234;50.044;19.258;2022-11-15T02:58:38;30.10;;;27.08;;
76405;SDS011;65234;50.044;19.258;2022-11-15T03:01:31;30.38;;;27.17;;
76405;SDS011;65234;50.044;19.258;2022-11-15T03:04:10;34.05;;;30.08;;
76405;SDS011;65234;50.044;19.258;2022-11-15T03:06:48;30.48;;;27.25;;
76405;SDS011;65234;50.044;19.258;2022-11-15T03:09:19;59.67;;;34.42;;
76405;SDS011;65234;50.044;19.258;2022-11-15T03:11:55;36.88;;;28.75;;
76405;SDS011;65234;50.044;19.258;2022-11-15T03:14:27;29.95;;;26.83;;
76405;SDS011;65234;50.044;19.258;2022-11-15T03:17:00;31.20;;;27.98;;
76405;SDS011;65234;50.044;19.258;2022-11-15T03:19:32;28.30;;;25.58;;
76405;SDS011;65234;50.044;19.258;2022-11-15T03:22:03;30.38;;;27.25;;
76405;SDS011;65234;50.044;19.258;2022-11-15T03:24:34;29.15;;;25.73;;
76405;SDS011;65234;50.044;19.258;2022-11-15T03:27:03;32.20;;;29.10;;
76405;SDS011;65234;50.044;19.258;2022-11-15T03:29:32;34.75;;;29.05;;
76405;SDS011;65234;50.044;19.258;2022-11-15T03:32:03;33.47;;;28.80;;
76405;SDS011;65234;50.044;19.258;2022-11-15T03:34:34;28.30;;;25.75;;
76405;SDS011;65234;50.044;19.258;2022-11-15T03:37:04;30.80;;;27.65;;
76405;SDS011;65234;50.044;19.258;2022-11-15T03:39:32;28.77;;;26.13;;
76405;SDS011;65234;50.044;19.258;2022-11-15T03:42:02;33.80;;;29.52;;
76405;SDS011;65234;50.044;19.258;2022-11-15T03:44:36;32.65;;;29.08;;
76405;SDS011;65234;50.044;19.258;2022-11-15T03:47:11;35.05;;;28.98;;
76405;SDS011;65234;50.044;19.258;2022-11-15T03:49:41;29.30;;;26.60;;
76405;SDS011;65234;50.044;19.258;2022-11-15T03:52:11;33.30;;;28.92;;
76405;SDS011;65234;50.044;19.258;2022-11-15T03:54:46;39.28;;;29.63;;
76405;SDS011;65234;50.044;19.258;2022-11-15T03:57:13;28.70;;;26.02;;
76405;SDS011;65234;50.044;19.258;2022-11-15T03:59:39;33.35;;;28.70;;
76405;SDS011;65234;50.044;19.258;2022-11-15T04:02:05;32.58;;;27.70;;
76405;SDS011;65234;50.044;19.258;2022-11-15T04:04:31;30.88;;;27.45;;
76405;SDS011;65234;50.044;19.258;2022-11-15T04:06:57;32.58;;;28.27;;
76405;SDS011;65234;50.044;19.258;2022-11-15T04:09:23;29.38;;;26.33;;
76405;SDS011;65234;50.044;19.258;2022-11-15T04:11:49;34.40;;;27.42;;
76405;SDS011;65234;50.044;19.258;2022-11-15T04:14:14;31.90;;;28.42;;
76405;SDS011;65234;50.044;19.258;2022-11-15T04:16:40;33.35;;;27.50;;
76405;SDS011;65234;50.044;19.258;2022-11-15T04:19:06;30.50;;;27.38;;
76405;SDS011;65234;50.044;19.258;2022-11-15T04:21:33;29.85;;;26.88;;
76405;SDS011;65234;50.044;19.258;2022-11-15T04:23:59;31.85;;;28.40;;
76405;SDS011;65234;50.044;19.258;2022-11-15T04:26:24;28.90;;;25.92;;
76405;SDS011;65234;50.044;19.258;2022-11-15T04:28:50;32.05;;;28.30;;
76405;SDS011;65234;50.044;19.258;2022-11-15T04:31:16;29.45;;;26.35;;
76405;SDS011;65234;50.044;19.258;2022-11-15T04:33:41;30.90;;;27.65;;
76405;SDS011;65234;50.044;19.258;2022-11-15T04:36:07;30.90;;;27.75;;
76405;SDS011;65234;50.044;19.258;2022-11-15T04:38:35;30.85;;;27.92;;
76405;SDS011;65234;50.044;19.258;2022-11-15T04:41:01;26.55;;;23.83;;
76405;SDS011;65234;50.044;19.258;2022-11-15T04:43:27;30.15;;;27.15;;
76405;SDS011;65234;50.044;19.258;2022-11-15T04:45:53;28.98;;;25.92;;
76405;SDS011;65234;50.044;19.258;2022-11-15T04:48:19;27.52;;;24.67;;
76405;SDS011;65234;50.044;19.258;2022-11-15T04:50:44;32.78;;;26.55;;
76405;SDS011;65234;50.044;19.258;2022-11-15T04:53:12;27.95;;;24.83;;
76405;SDS011;65234;50.044;19.258;2022-11-15T04:55:39;32.28;;;28.17;;
76405;SDS011;65234;50.044;19.258;2022-11-15T04:58:09;31.13;;;27.83;;
76405;SDS011;65234;50.044;19.258;2022-11-15T05:00:34;32.83;;;26.58;;
76405;SDS011;65234;50.044;19.258;2022-11-15T05:03:00;30.77;;;27.70;;
76405;SDS011;65234;50.044;19.258;2022-11-15T05:05:26;35.58;;;27.45;;
76405;SDS011;65234;50.044;19.258;2022-11-15T05:07:52;32.45;;;26.58;;
76405;SDS011;65234;50.044;19.258;2022-11-15T05:10:17;29.55;;;26.35;;
76405;SDS011;65234;50.044;19.258;2022-11-15T05:12:45;31.85;;;28.50;;
76405;SDS011;65234;50.044;19.258;2022-11-15T05:15:12;37.83;;;28.23;;
76405;SDS011;65234;50.044;19.258;2022-11-15T05:17:37;31.08;;;27.05;;
76405;SDS011;65234;50.044;19.258;2022-11-15T05:20:03;31.88;;;28.67;;
76405;SDS011;65234;50.044;19.258;2022-11-15T05:22:30;33.15;;;28.15;;
76405;SDS011;65234;50.044;19.258;2022-11-15T05:24:55;32.00;;;28.60;;
76405;SDS011;65234;50.044;19.258;2022-11-15T05:27:21;33.72;;;30.15;;
76405;SDS011;65234;50.044;19.258;2022-11-15T05:29:48;37.80;;;30.35;;
76405;SDS011;65234;50.044;19.258;2022-11-15T05:32:14;34.15;;;28.38;;
76405;SDS011;65234;50.044;19.258;2022-11-15T05:34:43;31.95;;;28.27;;
76405;SDS011;65234;50.044;19.258;2022-11-15T05:37:08;34.05;;;28.58;;
76405;SDS011;65234;50.044;19.258;2022-11-15T05:39:34;32.13;;;27.60;;
76405;SDS011;65234;50.044;19.258;2022-11-15T05:42:01;31.48;;;28.30;;
76405;SDS011;65234;50.044;19.258;2022-11-15T05:44:31;29.05;;;25.00;;
76405;SDS011;65234;50.044;19.258;2022-11-15T05:47:00;29.50;;;26.80;;
76405;SDS011;65234;50.044;19.258;2022-11-15T05:49:29;29.13;;;26.23;;
76405;SDS011;65234;50.044;19.258;2022-11-15T05:52:00;28.55;;;26.00;;
76405;SDS011;65234;50.044;19.258;2022-11-15T05:54:29;30.30;;;27.42;;
76405;SDS011;65234;50.044;19.258;2022-11-15T05:56:57;32.95;;;27.65;;
76405;SDS011;65234;50.044;19.258;2022-11-15T05:59:22;27.45;;;25.00;;
76405;SDS011;65234;50.044;19.258;2022-11-15T06:01:49;27.17;;;25.17;;
76405;SDS011;65234;50.044;19.258;2022-11-15T06:04:16;29.02;;;26.48;;
76405;SDS011;65234;50.044;19.258;2022-11-15T06:06:41;25.83;;;23.85;;
76405;SDS011;65234;50.044;19.258;2022-11-15T06:09:07;26.98;;;24.50;;
76405;SDS011;65234;50.044;19.258;2022-11-15T06:11:33;23.77;;;22.05;;
76405;SDS011;65234;50.044;19.258;2022-11-15T06:13:58;23.50;;;21.85;;
76405;SDS011;65234;50.044;19.258;2022-11-15T06:16:24;24.90;;;22.83;;
76405;SDS011;65234;50.044;19.258;2022-11-15T06:18:50;26.88;;;24.85;;
76405;SDS011;65234;50.044;19.258;2022-11-15T06:21:17;29.08;;;26.73;;
76405;SDS011;65234;50.044;19.258;2022-11-15T06:23:43;28.92;;;25.88;;
76405;SDS011;65234;50.044;19.258;2022-11-15T06:26:08;27.38;;;24.95;;
76405;SDS011;65234;50.044;19.258;2022-11-15T06:28:34;26.02;;;24.08;;
76405;SDS011;65234;50.044;19.258;2022-11-15T06:31:02;27.77;;;25.67;;
76405;SDS011;65234;50.044;19.258;2022-11-15T06:33:28;27.08;;;24.70;;
76405;SDS011;65234;50.044;19.258;2022-11-15T06:35:54;25.65;;;23.85;;
76405;SDS011;65234;50.044;19.258;2022-11-15T06:38:21;29.00;;;26.25;;
76405;SDS011;65234;50.044;19.258;2022-11-15T06:40:46;29.58;;;27.13;;
76405;SDS011;65234;50.044;19.258;2022-11-15T06:43:12;28.17;;;25.83;;
76405;SDS011;65234;50.044;19.258;2022-11-15T06:45:38;25.25;;;23.20;;
76405;SDS011;65234;50.044;19.258;2022-11-15T06:48:04;28.67;;;26.05;;
76405;SDS011;65234;50.044;19.258;2022-11-15T06:50:31;26.08;;;24.00;;
76405;SDS011;65234;50.044;19.258;2022-11-15T06:53:00;24.85;;;22.75;;
76405;SDS011;65234;50.044;19.258;2022-11-15T06:55:28;24.27;;;22.55;;
76405;SDS011;65234;50.044;19.258;2022-11-15T06:57:53;23.55;;;22.13;;
76405;SDS011;65234;50.044;19.258;2022-11-15T07:00:19;25.55;;;23.15;;
76405;SDS011;65234;50.044;19.258;2022-11-15T07:02:46;23.70;;;22.13;;
76405;SDS011;65234;50.044;19.258;2022-11-15T07:05:13;28.83;;;26.08;;
76405;SDS011;65234;50.044;19.258;2022-11-15T07:07:39;26.90;;;24.65;;
76405;SDS011;65234;50.044;19.258;2022-11-15T07:10:06;31.98;;;26.23;;
76405;SDS011;65234;50.044;19.258;2022-11-15T07:12:34;29.30;;;26.70;;
76405;SDS011;65234;50.044;19.258;2022-11-15T07:15:00;25.98;;;23.58;;
76405;SDS011;65234;50.044;19.258;2022-11-15T07:17:25;25.05;;;23.35;;
76405;SDS011;65234;50.044;19.258;2022-11-15T07:19:51;27.55;;;25.45;;
76405;SDS011;65234;50.044;19.258;2022-11-15T07:22:17;26.45;;;24.58;;
76405;SDS011;65234;50.044;19.258;2022-11-15T07:24:43;27.45;;;24.90;;
76405;SDS011;65234;50.044;19.258;2022-11-15T07:27:08;27.63;;;25.23;;
76405;SDS011;65234;50.044;19.258;2022-11-15T07:29:35;30.33;;;27.65;;
76405;SDS011;65234;50.044;19.258;2022-11-15T07:32:01;32.05;;;28.83;;
76405;SDS011;65234;50.044;19.258;2022-11-15T07:34:27;27.27;;;24.92;;
76405;SDS011;65234;50.044;19.258;2022-11-15T07:36:53;25.80;;;23.77;;
76405;SDS011;65234;50.044;19.258;2022-11-15T07:39:18;27.25;;;25.08;;
76405;SDS011;65234;50.044;19.258;2022-11-15T07:41:44;27.90;;;25.40;;
76405;SDS011;65234;50.044;19.258;2022-11-15T07:44:10;29.38;;;26.65;;
76405;SDS011;65234;50.044;19.258;2022-11-15T07:46:37;36.30;;;28.30;;
76405;SDS011;65234;50.044;19.258;2022-11-15T07:49:03;36.17;;;30.02;;
76405;SDS011;65234;50.044;19.258;2022-11-15T07:51:28;31.05;;;28.10;;
76405;SDS011;65234;50.044;19.258;2022-11-15T07:53:54;28.50;;;26.30;;
76405;SDS011;65234;50.044;19.258;2022-11-15T07:56:20;44.15;;;30.05;;
76405;SDS011;65234;50.044;19.258;2022-11-15T07:58:45;31.02;;;28.02;;
76405;SDS011;65234;50.044;19.258;2022-11-15T08:01:11;31.23;;;28.33;;
76405;SDS011;65234;50.044;19.258;2022-11-15T08:03:38;30.58;;;27.77;;
76405;SDS011;65234;50.044;19.258;2022-11-15T08:06:04;29.67;;;27.23;;
76405;SDS011;65234;50.044;19.258;2022-11-15T08:08:30;29.38;;;26.92;;
76405;SDS011;65234;50.044;19.258;2022-11-15T08:10:56;31.83;;;28.42;;
76405;SDS011;65234;50.044;19.258;2022-11-15T08:13:22;31.38;;;28.10;;
76405;SDS011;65234;50.044;19.258;2022-11-15T08:15:48;29.25;;;26.67;;
76405;SDS011;65234;50.044;19.258;2022-11-15T08:18:14;29.33;;;26.88;;
76405;SDS011;65234;50.044;19.258;2022-11-15T08:20:42;29.20;;;26.48;;
76405;SDS011;65234;50.044;19.258;2022-11-15T08:23:09;31.52;;;28.42;;
76405;SDS011;65234;50.044;19.258;2022-11-15T08:25:36;32.22;;;29.25;;
76405;SDS011;65234;50.044;19.258;2022-11-15T08:28:03;33.80;;;29.25;;
76405;SDS011;65234;50.044;19.258;2022-11-15T08:30:30;30.63;;;27.98;;
76405;SDS011;65234;50.044;19.258;2022-11-15T08:32:59;29.08;;;26.27;;
76405;SDS011;65234;50.044;19.258;2022-11-15T08:35:25;31.50;;;28.73;;
76405;SDS011;65234;50.044;19.258;2022-11-15T08:37:53;30.02;;;27.40;;
76405;SDS011;65234;50.044;19.258;2022-11-15T08:40:19;31.13;;;28.23;;
76405;SDS011;65234;50.044;19.258;2022-11-15T08:42:45;33.75;;;29.95;;
76405;SDS011;65234;50.044;19.258;2022-11-15T08:45:12;33.78;;;30.45;;
76405;SDS011;65234;50.044;19.258;2022-11-15T08:47:38;29.95;;;27.15;;
76405;SDS011;65234;50.044;19.258;2022-11-15T08:50:04;38.97;;;30.95;;
76405;SDS011;65234;50.044;19.258;2022-11-15T08:52:31;32.67;;;29.17;;
76405;SDS011;65234;50.044;19.258;2022-11-15T08:54:58;44.65;;;30.77;;
76405;SDS011;65234;50.044;19.258;2022-11-15T08:57:24;34.80;;;30.23;;
76405;SDS011;65234;50.044;19.258;2022-11-15T08:59:49;40.28;;;32.47;;
76405;SDS011;65234;50.044;19.258;2022-11-15T09:02:15;51.25;;;30.75;;
76405;SDS011;65234;50.044;19.258;2022-11-15T09:04:41;31.08;;;28.20;;
76405;SDS011;65234;50.044;19.258;2022-11-15T09:07:08;37.88;;;30.60;;
76405;SDS011;65234;50.044;19.258;2022-11-15T09:09:34;34.83;;;31.38;;
76405;SDS011;65234;50.044;19.258;2022-11-15T09:12:02;43.15;;;32.85;;
76405;SDS011;65234;50.044;19.258;2022-11-15T09:14:28;41.95;;;34.05;;
76405;SDS011;65234;50.044;19.258;2022-11-15T09:16:53;35.72;;;32.22;;
76405;SDS011;65234;50.044;19.258;2022-11-15T09:19:19;39.70;;;33.95;;
76405;SDS011;65234;50.044;19.258;2022-11-15T09:21:45;43.63;;;33.20;;
76405;SDS011;65234;50.044;19.258;2022-11-15T09:24:10;44.17;;;35.15;;
76405;SDS011;65234;50.044;19.258;2022-11-15T09:26:36;41.30;;;33.28;;
76405;SDS011;65234;50.044;19.258;2022-11-15T09:29:03;36.40;;;32.22;;
76405;SDS011;65234;50.044;19.258;2022-11-15T09:31:29;45.22;;;35.10;;
76405;SDS011;65234;50.044;19.258;2022-11-15T09:33:55;38.08;;;34.05;;
76405;SDS011;65234;50.044;19.258;2022-11-15T09:36:21;51.55;;;34.05;;
76405;SDS011;65234;50.044;19.258;2022-11-15T09:38:46;41.53;;;33.72;;
76405;SDS011;65234;50.044;19.258;2022-11-15T09:44:21;43.25;;;35.92;;
76405;SDS011;65234;50.044;19.258;2022-11-15T09:47:02;48.05;;;35.40;;
76405;SDS011;65234;50.044;19.258;2022-11-15T09:49:38;55.88;;;36.22;;
76405;SDS011;65234;50.044;19.258;2022-11-15T09:52:04;47.22;;;37.40;;
76405;SDS011;65234;50.044;19.258;2022-11-15T09:54:33;51.55;;;39.13;;
76405;SDS011;65234;50.044;19.258;2022-11-15T09:57:03;43.90;;;37.53;;
76405;SDS011;65234;50.044;19.258;2022-11-15T09:59:43;50.33;;;38.72;;
76405;SDS011;65234;50.044;19.258;2022-11-15T10:02:23;45.53;;;36.88;;
76405;SDS011;65234;50.044;19.258;2022-11-15T10:04:58;59.28;;;39.92;;
76405;SDS011;65234;50.044;19.258;2022-11-15T10:07:26;45.10;;;39.20;;
76405;SDS011;65234;50.044;19.258;2022-11-15T10:09:56;47.47;;;39.47;;
76405;SDS011;65234;50.044;19.258;2022-11-15T10:12:29;45.80;;;40.20;;
76405;SDS011;65234;50.044;19.258;2022-11-15T10:15:00;44.78;;;39.95;;
76405;SDS011;65234;50.044;19.258;2022-11-15T10:17:38;45.92;;;38.97;;
76405;SDS011;65234;50.044;19.258;2022-11-15T10:20:21;43.60;;;39.13;;
76405;SDS011;65234;50.044;19.258;2022-11-15T10:22:49;50.53;;;40.60;;
76405;SDS011;65234;50.044;19.258;2022-11-15T10:25:18;47.97;;;38.35;;
76405;SDS011;65234;50.044;19.258;2022-11-15T10:27:50;48.72;;;41.58;;
76405;SDS011;65234;50.044;19.258;2022-11-15T10:30:20;51.97;;;41.25;;
76405;SDS011;65234;50.044;19.258;2022-11-15T10:32:46;47.08;;;38.47;;
76405;SDS011;65234;50.044;19.258;2022-11-15T10:35:17;44.85;;;40.17;;
76405;SDS011;65234;50.044;19.258;2022-11-15T10:37:45;47.83;;;39.75;;
76405;SDS011;65234;50.044;19.258;2022-11-15T10:40:14;44.35;;;39.72;;
76405;SDS011;65234;50.044;19.258;2022-11-15T10:42:42;42.80;;;38.33;;
76405;SDS011;65234;50.044;19.258;2022-11-15T10:45:13;49.40;;;40.10;;
76405;SDS011;65234;50.044;19.258;2022-11-15T10:47:50;44.10;;;39.30;;
76405;SDS011;65234;50.044;19.258;2022-11-15T10:50:27;45.08;;;40.05;;
76405;SDS011;65234;50.044;19.258;2022-11-15T10:52:55;45.63;;;40.92;;
76405;SDS011;65234;50.044;19.258;2022-11-15T10:55:23;47.38;;;41.38;;
76405;SDS011;65234;50.044;19.258;2022-11-15T10:57:53;45.03;;;40.85;;
76405;SDS011;65234;50.044;19.258;2022-11-15T11:00:29;47.45;;;42.05;;
76405;SDS011;65234;50.044;19.258;2022-11-15T11:02:58;47.72;;;42.60;;
76405;SDS011;65234;50.044;19.258;2022-11-15T11:05:25;47.55;;;40.13;;
76405;SDS011;65234;50.044;19.258;2022-11-15T11:07:56;46.03;;;40.58;;
76405;SDS011;65234;50.044;19.258;2022-11-15T11:10:22;47.53;;;42.25;;
76405;SDS011;65234;50.044;19.258;2022-11-15T11:12:48;45.15;;;40.35;;
76405;SDS011;65234;50.044;19.258;2022-11-15T11:15:14;46.72;;;42.03;;
76405;SDS011;65234;50.044;19.258;2022-11-15T11:17:48;46.30;;;41.33;;
76405;SDS011;65234;50.044;19.258;2022-11-15T11:20:24;46.50;;;41.05;;
76405;SDS011;65234;50.044;19.258;2022-11-15T11:23:00;45.78;;;41.60;;
76405;SDS011;65234;50.044;19.258;2022-11-15T11:25:30;46.45;;;41.20;;
76405;SDS011;65234;50.044;19.258;2022-11-15T11:28:12;47.17;;;42.20;;
76405;SDS011;65234;50.044;19.258;2022-11-15T11:30:51;44.55;;;40.45;;
76405;SDS011;65234;50.044;19.258;2022-11-15T11:33:29;50.35;;;45.35;;
76405;SDS011;65234;50.044;19.258;2022-11-15T11:35:59;48.28;;;43.15;;
76405;SDS011;65234;50.044;19.258;2022-11-15T11:38:39;51.08;;;45.15;;
76405;SDS011;65234;50.044;19.258;2022-11-15T11:41:15;49.03;;;44.15;;
76405;SDS011;65234;50.044;19.258;2022-11-15T11:43:49;56.08;;;47.22;;
76405;SDS011;65234;50.044;19.258;2022-11-15T11:46:38;50.22;;;43.08;;
76405;SDS011;65234;50.044;19.258;2022-11-15T11:49:16;52.03;;;46.47;;
76405;SDS011;65234;50.044;19.258;2022-11-15T11:51:47;51.85;;;45.10;;
76405;SDS011;65234;50.044;19.258;2022-11-15T11:54:18;52.90;;;47.33;;
76405;SDS011;65234;50.044;19.258;2022-11-15T11:56:47;56.47;;;50.10;;
76405;SDS011;65234;50.044;19.258;2022-11-15T11:59:18;51.13;;;46.45;;
76405;SDS011;65234;50.044;19.258;2022-11-15T12:01:50;54.78;;;48.92;;
76405;SDS011;65234;50.044;19.258;2022-11-15T12:04:19;52.67;;;47.20;;
76405;SDS011;65234;50.044;19.258;2022-11-15T12:06:50;51.45;;;46.65;;
76405;SDS011;65234;50.044;19.258;2022-11-15T12:09:21;54.67;;;48.65;;
76405;SDS011;65234;50.044;19.258;2022-11-15T12:11:55;55.95;;;47.42;;
76405;SDS011;65234;50.044;19.258;2022-11-15T12:14:26;60.22;;;50.75;;
76405;SDS011;65234;50.044;19.258;2022-11-15T12:16:57;57.67;;;51.70;;
76405;SDS011;65234;50.044;19.258;2022-11-15T12:19:25;61.55;;;55.03;;
76405;SDS011;65234;50.044;19.258;2022-11-15T12:21:53;60.92;;;54.00;;
76405;SDS011;65234;50.044;19.258;2022-11-15T12:24:24;71.95;;;56.97;;
76405;SDS011;65234;50.044;19.258;2022-11-15T12:26:54;72.70;;;53.63;;
76405;SDS011;65234;50.044;19.258;2022-11-15T12:29:26;61.38;;;55.20;;
76405;SDS011;65234;50.044;19.258;2022-11-15T12:31:56;57.33;;;51.40;;
76405;SDS011;65234;50.044;19.258;2022-11-15T12:34:36;61.45;;;53.63;;
76405;SDS011;65234;50.044;19.258;2022-11-15T12:40:19;56.58;;;49.38;;
76405;SDS011;65234;50.044;19.258;2022-11-15T12:42:57;53.85;;;48.75;;
76405;SDS011;65234;50.044;19.258;2022-11-15T12:45:51;54.10;;;48.22;;
76405;SDS011;65234;50.044;19.258;2022-11-15T12:51:12;59.53;;;51.92;;
76405;SDS011;65234;50.044;19.258;2022-11-15T12:53:38;57.40;;;51.70;;
76405;SDS011;65234;50.044;19.258;2022-11-15T12:58:54;51.95;;;47.28;;
76405;SDS011;65234;50.044;19.258;2022-11-15T13:04:25;55.13;;;49.35;;
76405;SDS011;65234;50.044;19.258;2022-11-15T13:06:54;51.53;;;46.28;;
76405;SDS011;65234;50.044;19.258;2022-11-15T13:15:32;63.08;;;53.65;;
76405;SDS011;65234;50.044;19.258;2022-11-15T13:21:04;65.30;;;56.50;;
76405;SDS011;65234;50.044;19.258;2022-11-15T13:23:44;65.97;;;58.20;;
76405;SDS011;65234;50.044;19.258;2022-11-15T13:26:12;69.50;;;59.90;;
76405;SDS011;65234;50.044;19.258;2022-11-15T13:28:42;69.03;;;55.58;;
76405;SDS011;65234;50.044;19.258;2022-11-15T13:31:26;64.25;;;54.28;;
76405;SDS011;65234;50.044;19.258;2022-11-15T13:34:00;57.72;;;51.35;;
76405;SDS011;65234;50.044;19.258;2022-11-15T13:36:30;59.10;;;52.95;;
76405;SDS011;65234;50.044;19.258;2022-11-15T13:38:59;63.85;;;56.65;;
76405;SDS011;65234;50.044;19.258;2022-11-15T13:41:27;62.05;;;55.55;;
76405;SDS011;65234;50.044;19.258;2022-11-15T13:43:54;65.30;;;56.13;;
76405;SDS011;65234;50.044;19.258;2022-11-15T13:46:22;62.03;;;54.70;;
76405;SDS011;65234;50.044;19.258;2022-11-15T13:48:53;57.33;;;51.38;;
76405;SDS011;65234;50.044;19.258;2022-11-15T13:51:23;67.05;;;56.72;;
76405;SDS011;65234;50.044;19.258;2022-11-15T13:53:54;60.90;;;53.90;;
76405;SDS011;65234;50.044;19.258;2022-11-15T13:56:23;62.17;;;55.83;;
76405;SDS011;65234;50.044;19.258;2022-11-15T13:58:50;74.85;;;59.30;;
76405;SDS011;65234;50.044;19.258;2022-11-15T14:01:17;66.22;;;57.53;;
76405;SDS011;65234;50.044;19.258;2022-11-15T14:03:47;73.75;;;57.60;;
76405;SDS011;65234;50.044;19.258;2022-11-15T14:06:18;64.22;;;56.55;;
76405;SDS011;65234;50.044;19.258;2022-11-15T14:09:15;67.82;;;59.25;;
76405;SDS011;65234;50.044;19.258;2022-11-15T14:11:54;63.95;;;57.30;;
76405;SDS011;65234;50.044;19.258;2022-11-15T14:14:21;70.85;;;58.67;;
76405;SDS011;65234;50.044;19.258;2022-11-15T14:16:49;81.45;;;60.75;;
76405;SDS011;65234;50.044;19.258;2022-11-15T14:22:12;71.80;;;61.20;;
76405;SDS011;65234;50.044;19.258;2022-11-15T14:24:42;76.18;;;60.30;;
76405;SDS011;65234;50.044;19.258;2022-11-15T14:27:15;66.78;;;59.88;;
76405;SDS011;65234;50.044;19.258;2022-11-15T14:29:49;67.18;;;59.95;;
76405;SDS011;65234;50.044;19.258;2022-11-15T14:32:15;73.50;;;61.65;;
76405;SDS011;65234;50.044;19.258;2022-11-15T14:34:43;74.20;;;57.80;;
76405;SDS011;65234;50.044;19.258;2022-11-15T14:37:12;76.03;;;62.38;;
76405;SDS011;65234;50.044;19.258;2022-11-15T14:39:46;67.43;;;60.20;;
76405;SDS011;65234;50.044;19.258;2022-11-15T14:42:12;71.53;;;60.58;;
76405;SDS011;65234;50.044;19.258;2022-11-15T14:44:37;67.43;;;58.33;;
76405;SDS011;65234;50.044;19.258;2022-11-15T14:47:03;70.50;;;62.25;;